createdAt,value
2023-02-18T00:00:10.122Z,16.51
2023-02-18T00:05:14.027Z,16.35
2023-02-18T00:10:18.116Z,16.18
2023-02-18T00:15:23.426Z,16.02
2023-02-18T00:20:27.123Z,15.96
2023-02-18T00:25:30.960Z,15.83
2023-02-18T00:30:36.263Z,15.54
2023-02-18T00:35:39.866Z,15.54
2023-02-18T00:40:44.009Z,15.47
2023-02-18T00:45:49.302Z,15.46
2023-02-18T00:50:52.940Z,15.21
2023-02-18T00:55:56.768Z,14.92
2023-02-18T01:01:03.375Z,14.69
2023-02-18T01:06:08.772Z,14.43
2023-02-18T01:11:13.656Z,14.16
2023-02-18T01:16:20.404Z,13.84
2023-02-18T01:21:24.122Z,13.45
2023-02-18T01:26:27.760Z,13.92
2023-02-18T01:31:33.195Z,13.63
2023-02-18T01:36:36.930Z,13.11
2023-02-18T01:41:40.604Z,12.76
2023-02-18T01:46:46.184Z,12.57
2023-02-18T01:51:53.060Z,12.46
2023-02-18T01:56:59.661Z,12.28
2023-02-18T02:02:07.247Z,12.34
2023-02-18T02:07:11.060Z,11.98
2023-02-18T02:12:44.854Z,11.80
2023-02-18T02:18:03.060Z,11.82
2023-02-18T02:23:30.333Z,12.04
2023-02-18T02:29:04.735Z,12.01
2023-02-18T02:34:40.044Z,11.89
2023-02-18T02:39:54.741Z,11.51
2023-02-18T02:45:05.462Z,11.23
2023-02-18T02:50:14.822Z,11.02
2023-02-18T02:55:18.535Z,10.91
2023-02-18T03:00:27.994Z,11.04
2023-02-18T03:05:47.094Z,11.07
2023-02-18T03:10:58.633Z,11.14
2023-02-18T03:16:12.079Z,11.17
2023-02-18T03:21:24.921Z,11.19
2023-02-18T03:26:30.691Z,11.11
2023-02-18T03:31:38.702Z,10.87
2023-02-18T03:36:44.792Z,10.82
2023-02-18T03:41:49.748Z,10.79
2023-02-18T03:46:53.774Z,11.53
2023-02-18T03:51:59.043Z,11.25
2023-02-18T03:57:02.652Z,10.99
2023-02-18T04:02:06.298Z,10.81
2023-02-18T04:07:11.586Z,10.59
2023-02-18T04:12:15.393Z,10.21
2023-02-18T04:17:19.039Z,10.01
2023-02-18T04:22:24.369Z,9.97
2023-02-18T04:27:28.771Z,9.97
2023-02-18T04:32:32.574Z,9.86
2023-02-18T04:37:37.874Z,9.81
2023-02-18T04:42:41.724Z,9.93
2023-02-18T04:47:45.385Z,9.95
2023-02-18T04:52:50.716Z,9.72
2023-02-18T04:57:54.377Z,9.68
2023-02-18T05:02:58.070Z,9.62
2023-02-18T05:08:03.419Z,9.38
2023-02-18T05:13:07.066Z,9.15
2023-02-18T05:18:11.340Z,8.99
2023-02-18T05:23:16.636Z,8.89
2023-02-18T05:28:20.315Z,8.71
2023-02-18T05:33:23.975Z,8.80
2023-02-18T05:38:29.320Z,8.87
2023-02-18T05:43:33.620Z,8.98
2023-02-18T05:48:37.284Z,9.00
2023-02-18T05:53:46.724Z,8.91
2023-02-18T05:58:50.474Z,8.96
2023-02-18T06:03:54.124Z,8.97
2023-02-18T06:08:59.555Z,8.90
2023-02-18T06:14:03.693Z,8.65
2023-02-18T06:19:07.385Z,8.66
2023-02-18T06:24:18.600Z,8.54
2023-02-18T06:29:22.770Z,8.48
2023-02-18T06:34:27.513Z,8.36
2023-02-18T06:39:32.840Z,8.20
2023-02-18T06:44:37.950Z,8.00
2023-02-18T06:49:41.748Z,8.03
2023-02-18T06:54:47.153Z,8.01
2023-02-18T06:59:50.804Z,7.81
2023-02-18T07:04:54.797Z,7.56
2023-02-18T07:10:00.116Z,7.60
2023-02-18T07:15:04.224Z,7.57
2023-02-18T07:20:09.104Z,7.64
2023-02-18T07:25:14.709Z,7.53
2023-02-18T07:30:18.745Z,7.36
2023-02-18T07:35:22.613Z,7.33
2023-02-18T07:40:27.964Z,7.35
2023-02-18T07:45:31.569Z,7.14
2023-02-18T07:50:35.242Z,7.12
2023-02-18T07:55:41.011Z,7.04
2023-02-18T08:00:45.006Z,6.99
2023-02-18T08:05:51.170Z,6.86
2023-02-18T08:10:59.677Z,6.56
2023-02-18T08:16:04.793Z,6.51
2023-02-18T08:21:08.425Z,6.59
2023-02-18T08:26:14.004Z,6.64
2023-02-18T08:31:20.216Z,6.48
2023-02-18T08:36:24.399Z,6.41
2023-02-18T08:41:29.692Z,6.27
2023-02-18T08:46:35.466Z,6.34
2023-02-18T08:51:40.805Z,6.25
2023-02-18T08:56:46.167Z,6.20
2023-02-18T09:01:49.857Z,6.14
2023-02-18T09:06:53.495Z,6.15
2023-02-18T09:11:58.872Z,6.04
2023-02-18T09:17:02.519Z,5.87
2023-02-18T09:22:06.125Z,5.83
2023-02-18T09:27:11.671Z,6.05
2023-02-18T09:32:25.459Z,5.96
2023-02-18T09:37:36.320Z,5.79
2023-02-18T09:42:41.658Z,5.83
2023-02-18T09:47:47.054Z,5.70
2023-02-18T09:52:50.863Z,5.60
2023-02-18T09:58:00.239Z,5.64
2023-02-18T10:03:08.037Z,5.58
2023-02-18T10:08:25.268Z,5.58
2023-02-18T10:13:33.277Z,5.44
2023-02-18T10:18:42.781Z,5.39
2023-02-18T10:23:54.668Z,5.10
2023-02-18T10:29:00.176Z,5.31
2023-02-18T10:34:14.454Z,5.12
2023-02-18T10:39:34.683Z,5.23
2023-02-18T10:44:49.102Z,5.17
2023-02-18T10:49:59.313Z,5.10
2023-02-18T10:55:04.352Z,4.84
2023-02-18T11:00:18.675Z,4.73
2023-02-18T11:05:28.713Z,4.73
2023-02-18T11:10:34.451Z,4.91
2023-02-18T11:15:54.121Z,4.77
2023-02-18T11:20:59.793Z,4.71
2023-02-18T11:26:06.725Z,4.84
2023-02-18T11:31:22.612Z,4.76
2023-02-18T11:36:29.760Z,4.67
2023-02-18T11:41:36.767Z,4.56
2023-02-18T11:46:58.361Z,4.51
2023-02-18T11:52:15.527Z,4.42
2023-02-18T11:57:20.989Z,4.44
2023-02-18T12:02:34.828Z,4.45
2023-02-18T12:07:45.323Z,4.43
2023-02-18T12:12:53.311Z,4.34
2023-02-18T12:18:39.586Z,4.24
2023-02-18T12:23:54.855Z,4.10
2023-02-18T12:29:18.482Z,4.28
2023-02-18T12:34:40.118Z,4.29
2023-02-18T12:40:04.258Z,3.93
2023-02-18T12:45:32.914Z,4.06
2023-02-18T12:51:01.544Z,3.90
2023-02-18T12:56:24.798Z,3.92
2023-02-18T13:01:40.257Z,3.94
2023-02-18T13:07:04.917Z,3.87
2023-02-18T13:12:16.085Z,3.82
2023-02-18T13:17:22.841Z,3.68
2023-02-18T13:22:30.990Z,3.71
2023-02-18T13:27:41.847Z,3.74
2023-02-18T13:32:53.372Z,3.64
2023-02-18T13:38:27.520Z,3.69
2023-02-18T13:43:32.867Z,3.66
2023-02-18T13:48:43.302Z,3.63
2023-02-18T13:53:53.297Z,3.48
2023-02-18T13:59:02.217Z,3.47
2023-02-18T14:04:27.294Z,3.46
2023-02-18T14:09:42.403Z,3.49
2023-02-18T14:14:46.993Z,3.34
2023-02-18T14:19:55.648Z,3.45
2023-02-18T14:25:05.221Z,3.48
2023-02-18T14:30:20.116Z,3.45
2023-02-18T14:35:33.611Z,3.30
2023-02-18T14:40:59.424Z,3.17
2023-02-18T14:46:11.282Z,3.25
2023-02-18T14:51:17.627Z,3.36
2023-02-18T14:56:24.555Z,3.36
2023-02-18T15:01:30.857Z,3.33
2023-02-18T15:06:36.587Z,3.32
2023-02-18T15:11:45.852Z,3.34
2023-02-18T15:16:50.949Z,3.57
2023-02-18T15:21:57.695Z,3.69
2023-02-18T15:27:06.276Z,3.91
2023-02-18T15:32:19.234Z,4.29
2023-02-18T15:37:22.957Z,4.49
2023-02-18T15:42:32.499Z,4.99
2023-02-18T15:47:42.404Z,5.47
2023-02-18T15:52:46.595Z,5.83
2023-02-18T15:57:52.491Z,6.38
2023-02-18T16:02:57.809Z,6.81
2023-02-18T16:08:06.081Z,7.28
2023-02-18T16:13:15.163Z,7.27
2023-02-18T16:18:31.488Z,7.77
2023-02-18T16:23:41.583Z,8.30
2023-02-18T16:28:47.300Z,8.68
2023-02-18T16:33:51.121Z,8.93
2023-02-18T16:38:54.765Z,9.17
2023-02-18T16:44:00.531Z,9.52
2023-02-18T16:49:04.330Z,10.08
2023-02-18T16:54:10.742Z,10.27
2023-02-18T16:59:16.187Z,10.46
2023-02-18T17:04:20.574Z,10.74
2023-02-18T17:09:25.420Z,11.11
2023-02-18T17:14:30.816Z,11.37
2023-02-18T17:19:34.428Z,11.76
2023-02-18T17:24:38.044Z,12.11
2023-02-18T17:29:43.324Z,12.65
2023-02-18T17:34:47.003Z,13.10
2023-02-18T17:39:50.629Z,13.29
2023-02-18T17:44:55.961Z,13.70
2023-02-18T17:49:59.578Z,14.02
2023-02-18T17:55:03.228Z,14.06
2023-02-18T18:00:09.790Z,13.90
2023-02-18T18:05:22.392Z,14.17
2023-02-18T18:10:27.558Z,14.16
2023-02-18T18:15:34.324Z,14.63
2023-02-18T18:20:38.599Z,14.49
2023-02-18T18:25:43.889Z,14.36
2023-02-18T18:30:51.189Z,14.55
2023-02-18T18:35:56.799Z,14.63
2023-02-18T18:41:00.487Z,14.65
2023-02-18T18:46:07.315Z,14.89
2023-02-18T18:51:15.231Z,15.23
2023-02-18T18:56:18.904Z,15.13
2023-02-18T19:01:24.505Z,15.04
2023-02-18T19:06:28.930Z,15.08
2023-02-18T19:11:32.554Z,15.40
2023-02-18T19:16:39.884Z,15.48
2023-02-18T19:21:43.482Z,15.40
2023-02-18T19:26:47.128Z,15.72
2023-02-18T19:31:52.484Z,16.08
2023-02-18T19:36:56.120Z,15.97
2023-02-18T19:41:59.739Z,15.88
2023-02-18T19:47:05.091Z,16.06
2023-02-18T19:52:08.805Z,16.12
2023-02-18T19:57:12.954Z,16.34
2023-02-18T20:02:21.869Z,16.35
2023-02-18T20:07:25.533Z,16.63
2023-02-18T20:12:29.310Z,16.93
2023-02-18T20:17:34.724Z,17.09
2023-02-18T20:22:38.327Z,17.37
2023-02-18T20:27:58.268Z,17.74
2023-02-18T20:33:05.448Z,18.18
2023-02-18T20:38:09.094Z,18.28
2023-02-18T20:43:12.695Z,18.37
2023-02-18T20:48:19.954Z,18.27
2023-02-18T20:53:23.571Z,18.11
2023-02-18T20:58:27.538Z,18.17
2023-02-18T21:03:33.029Z,18.18
2023-02-18T21:08:40.286Z,18.25
2023-02-18T21:13:45.731Z,18.23
2023-02-18T21:18:51.456Z,18.22
2023-02-18T21:23:54.319Z,18.14
2023-02-18T21:29:00.751Z,17.84
2023-02-18T21:34:07.025Z,17.84
2023-02-18T21:39:11.513Z,17.80
2023-02-18T21:44:15.183Z,17.73
2023-02-18T21:49:20.573Z,17.67
2023-02-18T21:54:25.765Z,17.63
2023-02-18T21:59:31.410Z,17.76
2023-02-18T22:04:37.885Z,17.83
2023-02-18T22:09:41.654Z,17.79
2023-02-18T22:14:45.575Z,17.86
2023-02-18T22:19:51.271Z,17.66
2023-02-18T22:24:54.114Z,17.54
2023-02-18T22:29:57.839Z,17.38
2023-02-18T22:35:03.121Z,17.35
2023-02-18T22:40:07.323Z,17.44
2023-02-18T22:45:11.116Z,17.56
2023-02-18T22:50:17.310Z,17.34
2023-02-18T22:55:21.022Z,17.46
2023-02-18T23:00:26.528Z,17.32
2023-02-18T23:05:34.561Z,17.27
2023-02-18T23:10:38.174Z,17.43
2023-02-18T23:15:41.781Z,17.48
2023-02-18T23:20:47.096Z,17.31
2023-02-18T23:25:50.736Z,17.36
2023-02-18T23:30:55.092Z,17.23
2023-02-18T23:36:10.016Z,17.13
2023-02-18T23:41:13.655Z,17.23
2023-02-18T23:46:19.002Z,17.15
2023-02-18T23:51:24.502Z,17.06
2023-02-18T23:56:29.260Z,16.98
